sensor_id;sensor_type;location;lat;lon;timestamp;P1;durP1;ratioP1;P2;durP2;ratioP2
5827;SDS011;42583;50.240;8.444;2023-05-10T00:12:51;121.22;;;1.95;;
5827;SDS011;42583;50.240;8.444;2023-05-10T00:27:51;42.10;;;1.23;;
5827;SDS011;42583;50.240;8.444;2023-05-10T00:42:52;71.90;;;1.50;;
5827;SDS011;42583;50.240;8.444;2023-05-10T00:57:53;181.77;;;2.90;;
5827;SDS011;42583;50.240;8.444;2023-05-10T01:12:53;142.32;;;2.38;;
5827;SDS011;42583;50.240;8.444;2023-05-10T01:43:15;140.02;;;2.45;;
5827;SDS011;42583;50.240;8.444;2023-05-10T01:58:27;219.93;;;3.38;;
5827;SDS011;42583;50.240;8.444;2023-05-10T02:13:31;291.30;;;4.40;;
5827;SDS011;42583;50.240;8.444;2023-05-10T02:28:35;182.98;;;3.10;;
5827;SDS011;42583;50.240;8.444;2023-05-10T02:43:37;252.10;;;3.67;;
5827;SDS011;42583;50.240;8.444;2023-05-10T02:58:40;322.25;;;4.95;;
5827;SDS011;42583;50.240;8.444;2023-05-10T03:13:49;378.70;;;6.30;;
5827;SDS011;42583;50.240;8.444;2023-05-10T03:28:55;324.73;;;6.18;;
5827;SDS011;42583;50.240;8.444;2023-05-10T03:43:58;570.40;;;10.27;;
5827;SDS011;42583;50.240;8.444;2023-05-10T03:58:59;193.40;;;3.30;;
5827;SDS011;42583;50.240;8.444;2023-05-10T04:14:00;293.35;;;4.93;;
5827;SDS011;42583;50.240;8.444;2023-05-10T04:29:00;367.65;;;5.50;;
5827;SDS011;42583;50.240;8.444;2023-05-10T04:44:01;323.33;;;5.80;;
5827;SDS011;42583;50.240;8.444;2023-05-10T04:59:01;445.15;;;7.25;;
5827;SDS011;42583;50.240;8.444;2023-05-10T05:14:02;404.43;;;7.07;;
5827;SDS011;42583;50.240;8.444;2023-05-10T05:29:03;476.80;;;8.20;;
5827;SDS011;42583;50.240;8.444;2023-05-10T05:44:03;484.65;;;9.20;;
5827;SDS011;42583;50.240;8.444;2023-05-10T05:59:04;695.35;;;12.00;;
5827;SDS011;42583;50.240;8.444;2023-05-10T06:14:05;601.50;;;10.85;;
5827;SDS011;42583;50.240;8.444;2023-05-10T06:29:07;495.70;;;8.60;;
5827;SDS011;42583;50.240;8.444;2023-05-10T06:44:07;93.57;;;4.15;;
5827;SDS011;42583;50.240;8.444;2023-05-10T06:59:08;208.98;;;5.85;;
5827;SDS011;42583;50.240;8.444;2023-05-10T07:14:08;76.22;;;4.20;;
5827;SDS011;42583;50.240;8.444;2023-05-10T07:29:09;5.03;;;3.10;;
5827;SDS011;42583;50.240;8.444;2023-05-10T07:44:10;4.78;;;2.85;;
5827;SDS011;42583;50.240;8.444;2023-05-10T07:59:14;8.23;;;3.33;;
5827;SDS011;42583;50.240;8.444;2023-05-10T08:14:16;4.90;;;3.22;;
5827;SDS011;42583;50.240;8.444;2023-05-10T08:29:17;7.50;;;3.40;;
5827;SDS011;42583;50.240;8.444;2023-05-10T08:44:17;5.22;;;3.25;;
5827;SDS011;42583;50.240;8.444;2023-05-10T08:59:19;6.30;;;2.92;;
5827;SDS011;42583;50.240;8.444;2023-05-10T09:14:19;7.28;;;2.90;;
5827;SDS011;42583;50.240;8.444;2023-05-10T09:29:21;6.55;;;2.72;;
5827;SDS011;42583;50.240;8.444;2023-05-10T09:44:22;5.82;;;3.05;;
5827;SDS011;42583;50.240;8.444;2023-05-10T09:59:24;5.97;;;2.30;;
5827;SDS011;42583;50.240;8.444;2023-05-10T10:14:27;3.00;;;2.00;;
5827;SDS011;42583;50.240;8.444;2023-05-10T10:29:36;5.78;;;1.60;;
5827;SDS011;42583;50.240;8.444;2023-05-10T10:44:47;2.40;;;0.80;;
5827;SDS011;42583;50.240;8.444;2023-05-10T10:59:48;1.73;;;0.90;;
5827;SDS011;42583;50.240;8.444;2023-05-10T11:14:52;1.23;;;1.08;;
5827;SDS011;42583;50.240;8.444;2023-05-10T11:29:57;4.13;;;1.00;;
5827;SDS011;42583;50.240;8.444;2023-05-10T11:44:58;2.55;;;1.00;;
5827;SDS011;42583;50.240;8.444;2023-05-10T12:00:00;2.58;;;1.60;;
5827;SDS011;42583;50.240;8.444;2023-05-10T12:15:04;3.03;;;0.90;;
5827;SDS011;42583;50.240;8.444;2023-05-10T12:30:06;3.70;;;1.00;;
5827;SDS011;42583;50.240;8.444;2023-05-10T12:45:08;1.90;;;0.73;;
5827;SDS011;42583;50.240;8.444;2023-05-10T13:00:09;1.10;;;0.80;;
5827;SDS011;42583;50.240;8.444;2023-05-10T13:15:10;2.72;;;0.80;;
5827;SDS011;42583;50.240;8.444;2023-05-10T13:30:10;0.88;;;0.80;;
5827;SDS011;42583;50.240;8.444;2023-05-10T13:45:12;1.55;;;0.90;;
5827;SDS011;42583;50.240;8.444;2023-05-10T14:00:13;1.10;;;1.00;;
5827;SDS011;42583;50.240;8.444;2023-05-10T14:15:14;1.90;;;1.02;;
5827;SDS011;42583;50.240;8.444;2023-05-10T14:30:14;4.70;;;1.02;;
5827;SDS011;42583;50.240;8.444;2023-05-10T14:45:15;2.58;;;0.90;;
5827;SDS011;42583;50.240;8.444;2023-05-10T15:00:16;1.35;;;0.90;;
5827;SDS011;42583;50.240;8.444;2023-05-10T15:15:19;3.33;;;0.90;;
5827;SDS011;42583;50.240;8.444;2023-05-10T15:30:19;1.52;;;0.90;;
5827;SDS011;42583;50.240;8.444;2023-05-10T15:45:20;5.55;;;1.02;;
5827;SDS011;42583;50.240;8.444;2023-05-10T16:00:21;3.13;;;1.05;;
5827;SDS011;42583;50.240;8.444;2023-05-10T16:15:22;2.28;;;1.05;;
5827;SDS011;42583;50.240;8.444;2023-05-10T16:30:22;1.58;;;1.08;;
5827;SDS011;42583;50.240;8.444;2023-05-10T16:45:26;1.53;;;1.10;;
5827;SDS011;42583;50.240;8.444;2023-05-10T17:00:26;3.50;;;1.20;;
5827;SDS011;42583;50.240;8.444;2023-05-10T17:15:27;1.38;;;1.00;;
5827;SDS011;42583;50.240;8.444;2023-05-10T17:30:28;2.88;;;1.20;;
5827;SDS011;42583;50.240;8.444;2023-05-10T17:45:31;1.03;;;0.93;;
5827;SDS011;42583;50.240;8.444;2023-05-10T18:00:32;5.63;;;2.40;;
5827;SDS011;42583;50.240;8.444;2023-05-10T18:15:32;2.72;;;1.65;;
5827;SDS011;42583;50.240;8.444;2023-05-10T18:30:33;4.05;;;2.50;;
5827;SDS011;42583;50.240;8.444;2023-05-10T18:45:34;3.28;;;1.42;;
5827;SDS011;42583;50.240;8.444;2023-05-10T19:00:35;2.70;;;1.30;;
5827;SDS011;42583;50.240;8.444;2023-05-10T19:15:35;2.90;;;1.75;;
5827;SDS011;42583;50.240;8.444;2023-05-10T19:30:36;1.75;;;1.23;;
5827;SDS011;42583;50.240;8.444;2023-05-10T19:45:36;3.33;;;1.23;;
5827;SDS011;42583;50.240;8.444;2023-05-10T20:00:37;1.80;;;1.20;;
5827;SDS011;42583;50.240;8.444;2023-05-10T20:15:37;1.95;;;1.48;;
5827;SDS011;42583;50.240;8.444;2023-05-10T20:30:38;3.13;;;1.20;;
5827;SDS011;42583;50.240;8.444;2023-05-10T20:45:39;1.75;;;1.30;;
5827;SDS011;42583;50.240;8.444;2023-05-10T21:00:40;1.60;;;1.15;;
5827;SDS011;42583;50.240;8.444;2023-05-10T21:15:41;1.33;;;1.10;;
5827;SDS011;42583;50.240;8.444;2023-05-10T21:30:41;2.35;;;1.10;;
5827;SDS011;42583;50.240;8.444;2023-05-10T21:45:42;2.05;;;0.90;;
5827;SDS011;42583;50.240;8.444;2023-05-10T22:00:42;3.83;;;0.90;;
5827;SDS011;42583;50.240;8.444;2023-05-10T22:15:43;4.78;;;1.30;;
5827;SDS011;42583;50.240;8.444;2023-05-10T22:30:43;4.38;;;1.42;;
5827;SDS011;42583;50.240;8.444;2023-05-10T22:45:44;3.05;;;2.08;;
5827;SDS011;42583;50.240;8.444;2023-05-10T23:00:44;6.47;;;1.98;;
5827;SDS011;42583;50.240;8.444;2023-05-10T23:15:45;3.40;;;1.60;;
5827;SDS011;42583;50.240;8.444;2023-05-10T23:30:46;5.28;;;2.17;;
5827;SDS011;42583;50.240;8.444;2023-05-10T23:45:56;3.17;;;2.35;;
